createdAt,value
2019-05-11T00:02:23.030Z,96304.57
2019-05-11T00:04:49.059Z,96301.55
2019-05-11T00:07:34.759Z,96292.41
2019-05-11T00:10:00.725Z,96292.41
2019-05-11T00:12:26.582Z,96288.97
2019-05-11T00:14:52.415Z,96289.30
2019-05-11T00:17:18.306Z,96285.36
2019-05-11T00:19:44.110Z,96294.79
2019-05-11T00:22:09.934Z,96295.02
2019-05-11T00:24:35.794Z,96300.60
2019-05-11T00:27:01.651Z,96302.08
2019-05-11T00:29:27.520Z,96300.95
2019-05-11T00:31:53.313Z,96287.60
2019-05-11T00:34:19.158Z,96281.50
2019-05-11T00:36:45.000Z,96286.76
2019-05-11T00:39:10.861Z,96289.72
2019-05-11T00:41:36.785Z,96286.08
2019-05-11T00:44:02.744Z,96285.77
2019-05-11T00:46:28.679Z,96282.52
2019-05-11T00:48:54.546Z,96279.93
2019-05-11T00:51:20.373Z,96280.05
2019-05-11T00:53:46.230Z,96269.23
2019-05-11T00:56:12.074Z,96271.98
2019-05-11T00:58:37.909Z,96265.22
2019-05-11T01:01:03.971Z,96261.07
2019-05-11T01:03:29.823Z,96261.80
2019-05-11T01:05:55.707Z,96263.27
2019-05-11T01:08:21.523Z,96255.25
2019-05-11T01:10:47.412Z,96259.78
2019-05-11T01:13:13.253Z,96268.95
2019-05-11T01:15:39.083Z,96264.56
2019-05-11T01:18:05.043Z,96266.98
2019-05-11T01:20:50.847Z,96254.71
2019-05-11T01:23:16.711Z,96254.71
2019-05-11T01:25:42.655Z,96248.24
2019-05-11T01:28:08.578Z,96236.16
2019-05-11T01:30:34.377Z,96234.64
2019-05-11T01:33:00.212Z,96232.39
2019-05-11T01:35:26.038Z,96228.02
2019-05-11T01:37:52.211Z,96228.75
2019-05-11T01:40:18.155Z,96232.47
2019-05-11T01:42:44.018Z,96231.17
2019-05-11T01:45:10.093Z,96233.12
2019-05-11T01:47:35.932Z,96232.37
2019-05-11T01:50:01.882Z,96219.05
2019-05-11T01:52:27.733Z,96226.04
2019-05-11T01:54:53.579Z,96231.56
2019-05-11T01:57:19.405Z,96230.77
2019-05-11T01:59:45.282Z,96227.70
2019-05-11T02:02:11.108Z,96227.87
2019-05-11T02:04:36.966Z,96231.50
2019-05-11T02:07:02.919Z,96231.56
2019-05-11T02:09:28.777Z,96219.47
2019-05-11T02:11:54.628Z,96219.27
2019-05-11T02:14:20.539Z,96209.48
2019-05-11T02:16:46.368Z,96206.75
2019-05-11T02:19:12.216Z,96213.47
2019-05-11T02:21:38.066Z,96204.59
2019-05-11T02:24:03.987Z,96201.50
2019-05-11T02:26:29.836Z,96204.16
2019-05-11T02:28:55.692Z,96204.03
2019-05-11T02:31:21.541Z,96201.98
2019-05-11T02:33:47.379Z,96199.23
2019-05-11T02:36:13.242Z,96193.30
2019-05-11T02:38:39.090Z,96196.46
2019-05-11T02:41:05.035Z,96187.45
2019-05-11T02:43:30.846Z,96178.88
2019-05-11T02:45:56.698Z,96183.73
2019-05-11T02:48:42.514Z,96187.64
2019-05-11T02:51:50.027Z,96180.63
2019-05-11T02:54:15.986Z,96178.41
2019-05-11T02:56:41.859Z,96163.97
2019-05-11T02:59:07.721Z,96173.43
2019-05-11T03:01:33.589Z,96169.59
2019-05-11T03:03:59.421Z,96150.19
2019-05-11T03:06:25.283Z,96145.43
2019-05-11T03:08:51.137Z,96152.82
2019-05-11T03:11:16.977Z,96159.19
2019-05-11T03:13:42.799Z,96145.58
2019-05-11T03:16:50.293Z,96132.27
2019-05-11T03:19:16.330Z,96144.56
2019-05-11T03:21:42.187Z,96144.56
2019-05-11T03:24:08.018Z,96155.03
2019-05-11T03:29:47.349Z,96157.56
2019-05-11T03:32:13.208Z,96157.56
2019-05-11T03:34:39.058Z,96155.54
2019-05-11T03:37:04.905Z,96157.13
2019-05-11T03:39:30.743Z,96157.39
2019-05-11T03:42:13.338Z,96155.91
2019-05-11T03:44:24.358Z,96155.45
2019-05-11T03:46:50.197Z,96152.22
2019-05-11T03:49:16.057Z,96154.00
2019-05-11T03:51:42.013Z,96147.28
2019-05-11T03:54:07.856Z,96145.73
2019-05-11T03:56:33.695Z,96142.77
2019-05-11T03:58:59.536Z,96137.25
2019-05-11T04:01:25.491Z,96141.12
2019-05-11T04:03:51.419Z,96134.70
2019-05-11T04:06:17.262Z,96129.31
2019-05-11T04:08:43.121Z,96109.61
2019-05-11T04:11:09.059Z,96103.23
2019-05-11T04:13:34.913Z,96102.69
2019-05-11T04:16:00.774Z,96095.42
2019-05-11T04:18:26.716Z,96095.92
2019-05-11T04:20:52.557Z,96097.25
2019-05-11T04:23:18.390Z,96098.39
2019-05-11T04:25:44.239Z,96093.56
2019-05-11T04:28:10.079Z,96091.70
2019-05-11T04:30:35.924Z,96076.03
2019-05-11T04:33:01.785Z,96066.14
2019-05-11T04:35:27.637Z,96066.16
2019-05-11T04:37:53.476Z,96062.75
2019-05-11T04:40:19.438Z,96067.19
2019-05-11T04:42:54.856Z,96081.64
2019-05-11T04:45:13.212Z,96084.11
2019-05-11T04:47:39.034Z,96083.45
2019-05-11T04:50:46.534Z,96075.75
2019-05-11T04:53:12.412Z,96067.06
2019-05-11T04:55:38.246Z,96065.70
2019-05-11T04:58:04.195Z,96058.12
2019-05-11T05:00:30.147Z,96047.56
2019-05-11T05:02:56.017Z,96040.53
2019-05-11T05:05:21.894Z,96038.80
2019-05-11T05:07:50.344Z,96045.52
2019-05-11T05:10:20.111Z,96048.38
2019-05-11T05:12:50.769Z,96052.66
2019-05-11T05:15:31.022Z,96051.41
2019-05-11T05:17:56.893Z,96044.83
2019-05-11T05:20:22.743Z,96044.83
2019-05-11T05:22:48.594Z,96044.67
2019-05-11T05:25:14.408Z,96037.08
2019-05-11T05:27:40.252Z,96047.01
2019-05-11T05:30:06.197Z,96038.15
2019-05-11T05:32:53.830Z,96044.42
2019-05-11T05:35:19.760Z,96044.42
2019-05-11T05:37:45.692Z,96042.66
2019-05-11T05:40:11.644Z,96057.54
2019-05-11T05:42:37.485Z,96056.55
2019-05-11T05:45:23.332Z,96044.12
2019-05-11T05:50:56.797Z,96030.26
2019-05-11T05:53:22.639Z,96025.95
2019-05-11T05:55:48.488Z,96032.68
2019-05-11T05:58:14.422Z,96030.67
2019-05-11T06:00:40.508Z,96023.37
2019-05-11T06:03:06.339Z,96018.00
2019-05-11T06:05:32.208Z,96021.44
2019-05-11T06:07:58.038Z,96020.45
2019-05-11T06:10:23.890Z,96025.83
2019-05-11T06:12:49.894Z,96019.56
2019-05-11T06:15:15.780Z,96018.71
2019-05-11T06:20:57.265Z,96016.53
2019-05-11T06:23:24.942Z,95994.95
2019-05-11T06:26:10.686Z,95987.38
2019-05-11T06:28:56.432Z,95989.68
2019-05-11T06:31:22.409Z,95977.50
2019-05-11T06:33:48.279Z,95977.50
2019-05-11T06:36:14.154Z,95987.06
2019-05-11T06:38:39.996Z,95997.72
2019-05-11T06:41:05.833Z,95994.88
2019-05-11T06:43:31.703Z,95937.53
2019-05-11T06:45:57.550Z,95988.72
2019-05-11T06:48:23.425Z,95986.30
2019-05-11T06:50:49.285Z,95987.38
2019-05-11T06:53:15.218Z,95985.64
2019-05-11T06:55:41.098Z,95985.84
2019-05-11T06:58:06.944Z,95989.70
2019-05-11T07:00:32.870Z,95990.58
2019-05-11T07:02:58.852Z,95985.97
2019-05-11T07:05:24.686Z,95991.58
2019-05-11T07:07:50.532Z,95992.23
2019-05-11T07:10:16.511Z,96000.89
2019-05-11T07:12:42.426Z,95999.37
2019-05-11T07:15:08.403Z,95995.17
2019-05-11T07:17:34.272Z,96005.10
2019-05-11T07:20:00.271Z,96004.37
2019-05-11T07:22:26.143Z,96000.95
2019-05-11T07:24:51.983Z,95996.58
2019-05-11T07:27:17.905Z,95995.45
2019-05-11T07:29:43.766Z,95996.09
2019-05-11T07:32:19.623Z,95986.97
2019-05-11T07:34:38.350Z,95987.55
2019-05-11T07:37:05.253Z,95987.55
2019-05-11T07:39:31.132Z,95985.77
2019-05-11T07:41:58.470Z,95991.41
2019-05-11T07:44:44.650Z,95970.58
2019-05-11T07:47:10.500Z,95970.58
2019-05-11T07:49:38.211Z,95980.33
2019-05-11T07:52:23.993Z,95987.38
2019-05-11T07:54:52.831Z,95987.38
2019-05-11T07:57:18.647Z,95985.84
2019-05-11T08:00:05.358Z,95982.32
2019-05-11T08:02:32.395Z,95982.32
2019-05-11T08:04:59.053Z,95980.65
2019-05-11T08:07:24.997Z,95984.91
2019-05-11T08:09:50.835Z,95990.20
2019-05-11T08:12:19.028Z,95993.76
2019-05-11T08:15:09.969Z,96005.05
2019-05-11T08:17:32.424Z,96005.05
2019-05-11T08:19:58.285Z,95997.70
2019-05-11T08:22:24.202Z,95995.48
2019-05-11T08:24:50.057Z,95995.06
2019-05-11T08:27:16.011Z,95994.61
2019-05-11T08:29:42.322Z,95992.80
2019-05-11T08:32:28.790Z,96002.59
2019-05-11T08:35:38.810Z,96002.59
2019-05-11T08:38:04.367Z,95997.02
2019-05-11T08:40:30.304Z,95992.76
2019-05-11T08:42:58.306Z,95996.98
2019-05-11T08:48:18.927Z,95988.68
2019-05-11T08:50:44.794Z,95988.15
2019-05-11T08:53:10.659Z,95990.50
2019-05-11T08:55:38.210Z,95988.45
2019-05-11T08:58:04.279Z,95999.63
2019-05-11T09:00:30.115Z,95995.03
2019-05-11T09:02:58.211Z,95989.94
2019-05-11T09:05:23.849Z,95991.92
2019-05-11T09:07:50.016Z,95985.91
2019-05-11T09:10:18.342Z,95987.08
2019-05-11T09:12:43.672Z,95990.13
2019-05-11T09:15:51.151Z,95990.38
2019-05-11T09:18:18.782Z,95994.97
2019-05-11T09:20:44.772Z,95993.64
2019-05-11T09:23:10.710Z,96002.08
2019-05-11T09:25:38.502Z,95999.75
2019-05-11T09:28:04.407Z,96004.31
2019-05-11T09:30:30.236Z,95997.47
2019-05-11T09:32:58.105Z,96001.20
2019-05-11T09:35:23.920Z,96006.77
2019-05-11T09:40:44.189Z,96000.28
2019-05-11T09:43:10.066Z,96000.80
2019-05-11T09:45:45.823Z,96006.47
2019-05-11T09:48:03.787Z,96007.39
2019-05-11T09:50:29.757Z,96005.63
2019-05-11T09:52:57.497Z,96009.59
2019-05-11T09:55:23.372Z,96000.34
2019-05-11T09:57:49.218Z,95999.64
2019-05-11T10:00:58.596Z,95990.41
2019-05-11T10:03:24.478Z,96001.13
2019-05-11T10:05:50.385Z,96000.63
2019-05-11T10:08:18.289Z,95995.84
2019-05-11T10:10:44.097Z,95987.42
2019-05-11T10:13:09.926Z,95985.63
2019-05-11T10:15:35.795Z,95982.03
2019-05-11T10:18:01.661Z,95982.11
2019-05-11T10:20:28.627Z,95985.48
2019-05-11T10:22:57.775Z,95975.45
2019-05-11T10:25:23.155Z,95978.36
2019-05-11T10:27:49.279Z,95977.29
2019-05-11T10:33:22.385Z,95969.87
2019-05-11T10:35:48.498Z,95969.36
2019-05-11T10:38:14.385Z,95963.31
2019-05-11T10:41:21.884Z,95966.90
2019-05-11T10:43:49.006Z,95969.11
2019-05-11T10:46:22.243Z,95959.72
2019-05-11T10:48:43.452Z,95955.77
2019-05-11T10:51:09.302Z,95950.94
2019-05-11T10:53:35.148Z,95962.33
2019-05-11T10:56:01.128Z,95953.69
2019-05-11T10:58:28.494Z,95957.96
2019-05-11T11:00:54.746Z,95958.30
2019-05-11T11:03:20.599Z,95967.63
2019-05-11T11:05:48.610Z,95976.48
2019-05-11T11:08:14.236Z,96000.72
2019-05-11T11:10:40.227Z,96013.06
2019-05-11T11:13:08.156Z,96015.69
2019-05-11T11:15:34.130Z,96024.88
2019-05-11T11:18:00.087Z,96028.00
2019-05-11T11:20:28.010Z,96022.69
2019-05-11T11:23:13.875Z,96026.08
2019-05-11T11:25:39.743Z,96014.64
2019-05-11T11:28:05.602Z,96014.64
2019-05-11T11:30:31.545Z,96015.84
2019-05-11T11:32:58.789Z,96019.41
2019-05-11T11:35:27.765Z,96008.38
2019-05-11T11:37:53.327Z,96008.38
2019-05-11T11:40:19.385Z,95987.11
2019-05-11T11:42:47.620Z,95995.43
2019-05-11T11:45:32.874Z,95989.94
2019-05-11T11:48:19.013Z,95988.45
2019-05-11T11:50:45.116Z,95988.45
2019-05-11T11:53:11.098Z,95983.30
2019-05-11T11:55:39.010Z,95986.02
2019-05-11T11:58:04.739Z,95980.37
2019-05-11T12:00:30.679Z,95981.97
2019-05-11T12:02:58.022Z,95998.58
2019-05-11T12:05:24.429Z,95990.27
2019-05-11T12:07:50.307Z,95988.17
2019-05-11T12:10:18.387Z,95981.63
2019-05-11T12:12:44.610Z,95967.72
2019-05-11T12:15:10.701Z,95973.66
2019-05-11T12:17:37.663Z,95971.39
2019-05-11T12:20:48.071Z,95980.81
2019-05-11T12:23:13.837Z,95974.53
2019-05-11T12:25:40.634Z,95977.40
2019-05-11T12:28:08.101Z,95989.17
2019-05-11T12:30:37.545Z,95983.48
2019-05-11T12:33:03.103Z,95988.53
2019-05-11T12:35:28.953Z,95978.30
2019-05-11T12:37:54.826Z,95979.08
2019-05-11T12:40:20.771Z,95977.78
2019-05-11T12:42:48.942Z,95997.03
2019-05-11T12:45:14.703Z,95992.50
2019-05-11T12:47:40.570Z,95996.03
2019-05-11T12:50:48.575Z,95994.58
2019-05-11T12:53:14.427Z,96000.30
2019-05-11T12:55:40.290Z,96002.47
2019-05-11T12:58:08.358Z,95996.59
2019-05-11T13:00:33.942Z,95985.69
2019-05-11T13:02:59.918Z,95976.08
2019-05-11T13:05:25.772Z,95984.72
2019-05-11T13:07:51.630Z,95973.28
2019-05-11T13:10:17.938Z,95974.02
2019-05-11T13:12:45.535Z,95985.84
2019-05-11T13:15:11.707Z,95992.43
2019-05-11T13:17:40.702Z,95988.94
2019-05-11T13:20:48.257Z,95996.73
2019-05-11T13:23:15.124Z,95986.86
2019-05-11T13:25:40.960Z,96003.66
2019-05-11T13:28:08.589Z,96026.01
2019-05-11T13:30:34.727Z,96020.73
2019-05-11T13:33:00.617Z,96019.77
2019-05-11T13:35:28.430Z,96034.80
2019-05-11T13:37:54.253Z,96028.20
2019-05-11T13:40:20.196Z,96033.59
2019-05-11T13:42:46.194Z,96027.90
2019-05-11T13:45:14.056Z,96035.39
2019-05-11T13:47:51.618Z,96034.96
2019-05-11T13:50:49.404Z,96029.27
2019-05-11T13:53:15.250Z,96023.86
2019-05-11T13:55:41.118Z,96014.84
2019-05-11T13:58:08.277Z,96015.02
2019-05-11T14:00:34.883Z,96017.66
2019-05-11T14:05:48.433Z,96030.75
2019-05-11T14:08:18.361Z,96031.92
2019-05-11T14:10:44.302Z,96033.98
2019-05-11T14:13:10.163Z,96035.58
2019-05-11T14:15:37.655Z,96036.17
2019-05-11T14:18:08.407Z,96039.02
2019-05-11T14:20:31.537Z,96034.09
2019-05-11T14:22:58.264Z,96028.66
2019-05-11T14:25:25.146Z,96043.88
2019-05-11T14:27:51.089Z,96042.12
2019-05-11T14:30:19.125Z,96039.91
2019-05-11T14:32:44.896Z,96054.09
2019-05-11T14:35:12.316Z,96061.34
2019-05-11T14:37:38.748Z,96068.72
2019-05-11T14:40:48.052Z,96083.53
2019-05-11T14:43:14.011Z,96080.23
2019-05-11T14:45:39.886Z,96085.86
2019-05-11T14:48:19.367Z,96094.39
2019-05-11T14:50:33.627Z,96108.33
2019-05-11T14:52:59.484Z,96110.25
2019-05-11T14:55:25.320Z,96114.56
2019-05-11T14:57:51.172Z,96123.09
2019-05-11T15:00:18.609Z,96139.19
2019-05-11T15:02:45.019Z,96150.92
2019-05-11T15:05:10.852Z,96147.57
2019-05-11T15:07:38.519Z,96147.36
2019-05-11T15:10:48.636Z,96147.78
2019-05-11T15:13:13.943Z,96147.03
2019-05-11T15:16:21.419Z,96153.64
2019-05-11T15:18:48.530Z,96164.78
2019-05-11T15:21:15.154Z,96173.91
2019-05-11T15:23:41.009Z,96180.20
2019-05-11T15:26:09.556Z,96177.14
2019-05-11T15:28:34.708Z,96174.61
2019-05-11T15:31:00.641Z,96177.53
2019-05-11T15:33:27.893Z,96169.78
2019-05-11T15:35:54.440Z,96171.53
2019-05-11T15:38:20.273Z,96163.91
2019-05-11T15:40:46.101Z,96177.91
2019-05-11T15:43:11.944Z,96176.08
2019-05-11T15:45:38.195Z,96182.34
2019-05-11T15:48:08.238Z,96182.71
2019-05-11T15:50:33.623Z,96185.58
2019-05-11T15:52:59.573Z,96198.40
2019-05-11T15:55:27.649Z,96201.95
2019-05-11T15:57:53.527Z,96203.54
2019-05-11T16:03:26.896Z,96205.23
2019-05-11T16:06:12.728Z,96213.52
2019-05-11T16:08:38.621Z,96218.71
2019-05-11T16:11:04.476Z,96225.02
2019-05-11T16:13:30.354Z,96236.08
2019-05-11T16:16:16.160Z,96237.08
2019-05-11T16:18:42.076Z,96242.94
2019-05-11T16:21:28.546Z,96264.91
2019-05-11T16:23:54.500Z,96260.43
2019-05-11T16:26:40.345Z,96264.75
2019-05-11T16:29:11.063Z,96263.92
2019-05-11T16:34:21.659Z,96260.84
2019-05-11T16:36:48.075Z,96262.34
2019-05-11T16:39:15.422Z,96264.98
2019-05-11T16:42:01.250Z,96265.58
2019-05-11T16:44:27.114Z,96268.48
2019-05-11T16:46:52.938Z,96265.68
2019-05-11T16:49:38.873Z,96275.25
2019-05-11T16:52:04.903Z,96278.05
2019-05-11T16:54:30.781Z,96280.84
2019-05-11T16:56:57.970Z,96281.05
2019-05-11T16:59:24.423Z,96281.32
2019-05-11T17:01:50.367Z,96288.34
2019-05-11T17:04:16.308Z,96284.68
2019-05-11T17:06:42.144Z,96280.29
2019-05-11T17:09:08.883Z,96284.38
2019-05-11T17:11:38.440Z,96291.47
2019-05-11T17:14:03.851Z,96291.54
2019-05-11T17:16:29.831Z,96301.84
2019-05-11T17:18:55.678Z,96299.03
2019-05-11T17:21:21.557Z,96308.77
2019-05-11T17:23:48.776Z,96314.13
2019-05-11T17:26:35.055Z,96326.59
2019-05-11T17:29:00.955Z,96326.59
2019-05-11T17:31:26.816Z,96322.07
2019-05-11T17:33:52.695Z,96324.12
2019-05-11T17:36:18.803Z,96324.41
2019-05-11T17:39:07.317Z,96335.27
2019-05-11T17:44:40.441Z,96343.80
2019-05-11T17:47:08.315Z,96342.37
2019-05-11T17:49:59.139Z,96351.03
2019-05-11T17:52:15.233Z,96351.03
2019-05-11T17:54:41.101Z,96352.23
2019-05-11T17:57:27.766Z,96352.41
2019-05-11T17:59:54.680Z,96353.75
2019-05-11T18:02:20.536Z,96351.78
2019-05-11T18:04:49.180Z,96351.41
2019-05-11T18:07:25.140Z,96348.00
2019-05-11T18:10:23.921Z,96354.13
2019-05-11T18:13:09.662Z,96366.16
2019-05-11T18:15:57.731Z,96366.16
2019-05-11T18:18:24.145Z,96382.34
2019-05-11T18:20:51.013Z,96379.17
2019-05-11T18:23:17.611Z,96377.98
2019-05-11T18:25:44.747Z,96383.81
2019-05-11T18:28:14.010Z,96385.64
2019-05-11T18:30:38.877Z,96389.98
2019-05-11T18:33:08.366Z,96389.65
2019-05-11T18:35:33.973Z,96393.52
2019-05-11T18:37:59.868Z,96391.76
2019-05-11T18:40:25.863Z,96402.38
2019-05-11T18:42:51.712Z,96410.20
2019-05-11T18:45:18.819Z,96408.44
2019-05-11T18:47:45.558Z,96413.64
2019-05-11T18:50:56.127Z,96428.55
2019-05-11T18:53:21.057Z,96428.75
2019-05-11T18:55:48.723Z,96428.77
2019-05-11T18:58:15.041Z,96442.00
2019-05-11T19:00:41.019Z,96453.61
2019-05-11T19:03:08.824Z,96459.55
2019-05-11T19:05:34.667Z,96455.46
2019-05-11T19:08:00.555Z,96458.91
2019-05-11T19:10:27.738Z,96467.29
2019-05-11T19:12:54.388Z,96476.12
2019-05-11T19:15:20.260Z,96477.77
2019-05-11T19:17:48.781Z,96476.55
2019-05-11T19:20:14.145Z,96483.97
2019-05-11T19:22:39.996Z,96481.77
2019-05-11T19:25:48.052Z,96482.20
2019-05-11T19:28:14.109Z,96486.67
2019-05-11T19:30:39.988Z,96481.16
2019-05-11T19:33:08.259Z,96486.83
2019-05-11T19:35:33.754Z,96493.12
2019-05-11T19:37:59.624Z,96486.83
2019-05-11T19:40:25.495Z,96490.53
2019-05-11T19:45:58.609Z,96497.01
2019-05-11T19:48:24.464Z,96497.01
2019-05-11T19:51:03.690Z,96499.95
2019-05-11T19:53:18.739Z,96504.26
2019-05-11T19:56:07.785Z,96515.28
2019-05-11T19:58:33.702Z,96515.28
2019-05-11T20:00:59.691Z,96516.06
2019-05-11T20:04:08.252Z,96526.14
2019-05-11T20:06:54.940Z,96521.58
2019-05-11T20:09:20.809Z,96521.58
2019-05-11T20:11:47.612Z,96525.17
2019-05-11T20:14:34.504Z,96534.19
2019-05-11T20:17:00.515Z,96534.19
2019-05-11T20:19:48.896Z,96551.61
2019-05-11T20:22:14.274Z,96551.61
2019-05-11T20:24:40.127Z,96550.61
2019-05-11T20:27:07.938Z,96561.42
2019-05-11T20:29:33.772Z,96573.31
2019-05-11T20:31:59.605Z,96573.70
2019-05-11T20:34:25.591Z,96584.67
2019-05-11T20:36:51.462Z,96585.50
2019-05-11T20:39:17.903Z,96591.05
2019-05-11T20:42:26.795Z,96595.34
2019-05-11T20:44:52.781Z,96593.45
2019-05-11T20:47:18.714Z,96596.99
2019-05-11T20:49:44.614Z,96610.60
2019-05-11T20:52:10.474Z,96605.50
2019-05-11T20:54:38.608Z,96602.99
2019-05-11T20:57:04.492Z,96608.56
2019-05-11T20:59:30.328Z,96602.59
2019-05-11T21:01:58.088Z,96612.47
2019-05-11T21:04:43.865Z,96618.84
2019-05-11T21:07:09.842Z,96622.20
2019-05-11T21:09:37.827Z,96622.20
2019-05-11T21:12:25.342Z,96624.13
2019-05-11T21:14:51.208Z,96624.13
2019-05-11T21:17:18.136Z,96636.48
2019-05-11T21:19:44.971Z,96637.80
2019-05-11T21:22:10.845Z,96637.58
2019-05-11T21:24:36.799Z,96633.62
2019-05-11T21:27:02.667Z,96642.06
2019-05-11T21:29:31.359Z,96647.50
2019-05-11T21:31:58.751Z,96646.87
2019-05-11T21:34:34.497Z,96663.48
2019-05-11T21:37:00.377Z,96659.84
2019-05-11T21:39:28.511Z,96669.54
2019-05-11T21:42:13.870Z,96682.57
2019-05-11T21:44:39.863Z,96690.77
2019-05-11T21:47:07.726Z,96690.77
2019-05-11T21:49:48.489Z,96699.03
2019-05-11T21:52:14.418Z,96699.03
2019-05-11T21:54:40.472Z,96704.58
2019-05-11T21:57:08.291Z,96707.80
2019-05-11T21:59:34.105Z,96709.36
2019-05-11T22:02:00.037Z,96714.97
2019-05-11T22:04:28.308Z,96721.88
2019-05-11T22:06:53.769Z,96728.39
2019-05-11T22:09:19.764Z,96734.62
2019-05-11T22:11:45.646Z,96730.82
2019-05-11T22:14:11.502Z,96735.17
2019-05-11T22:16:38.667Z,96741.28
2019-05-11T22:19:25.022Z,96755.72
2019-05-11T22:22:21.143Z,96752.34
2019-05-11T22:24:38.520Z,96752.34
2019-05-11T22:27:04.477Z,96759.36
2019-05-11T22:29:30.322Z,96765.71
2019-05-11T22:31:57.697Z,96773.70
2019-05-11T22:34:24.067Z,96784.17
2019-05-11T22:36:49.943Z,96787.81
2019-05-11T22:39:18.617Z,96800.55
2019-05-11T22:41:43.661Z,96814.41
2019-05-11T22:44:10.871Z,96814.41
2019-05-11T22:46:38.519Z,96817.58
2019-05-11T22:49:05.100Z,96820.00
2019-05-11T22:51:30.974Z,96823.92
2019-05-11T22:53:58.919Z,96828.02
2019-05-11T22:56:44.457Z,96832.75
2019-05-11T22:59:30.184Z,96835.02
2019-05-11T23:01:56.015Z,96835.02
2019-05-11T23:04:21.851Z,96830.22
2019-05-11T23:06:47.835Z,96840.91
2019-05-11T23:09:13.631Z,96846.94
2019-05-11T23:11:39.552Z,96850.15
2019-05-11T23:14:05.399Z,96844.52
2019-05-11T23:16:31.245Z,96861.55
2019-05-11T23:18:57.089Z,96856.22
2019-05-11T23:21:22.921Z,96860.59
2019-05-11T23:23:48.771Z,96861.70
2019-05-11T23:26:14.592Z,96865.50
2019-05-11T23:28:40.453Z,96872.95
2019-05-11T23:31:08.887Z,96878.52
2019-05-11T23:33:34.091Z,96873.72
2019-05-11T23:36:00.049Z,96882.94
2019-05-11T23:38:28.073Z,96875.39
2019-05-11T23:40:53.664Z,96879.78
2019-05-11T23:43:19.535Z,96876.23
2019-05-11T23:45:45.378Z,96874.98
2019-05-11T23:48:11.223Z,96885.39
2019-05-11T23:50:38.598Z,96880.56
2019-05-11T23:53:06.823Z,96871.95
2019-05-11T23:55:32.677Z,96879.22
2019-05-11T23:57:58.524Z,96880.12
